createdAt,value
2022-10-03T00:05:11.906Z,99540.00
2022-10-03T00:10:46.041Z,99533.60
2022-10-03T00:16:34.494Z,99533.80
2022-10-03T00:22:02.168Z,99527.40
2022-10-03T00:27:11.118Z,99529.40
2022-10-03T00:32:43.588Z,99531.60
2022-10-03T00:38:18.456Z,99522.40
2022-10-03T00:43:59.305Z,99522.20
2022-10-03T00:49:34.312Z,99514.00
2022-10-03T00:55:04.090Z,99507.40
2022-10-03T01:00:28.580Z,99491.60
2022-10-03T01:06:07.802Z,99488.60
2022-10-03T01:11:33.566Z,99494.20
2022-10-03T01:17:04.132Z,99490.80
2022-10-03T01:22:42.866Z,99491.60
2022-10-03T01:28:46.373Z,99489.00
2022-10-03T01:34:12.795Z,99482.40
2022-10-03T01:39:32.371Z,99475.40
2022-10-03T01:44:44.267Z,99477.40
2022-10-03T01:50:05.024Z,99480.20
2022-10-03T01:55:46.123Z,99476.60
2022-10-03T02:01:21.913Z,99469.80
2022-10-03T02:06:50.364Z,99466.80
2022-10-03T02:12:23.202Z,99468.80
2022-10-03T02:17:54.115Z,99469.80
2022-10-03T02:22:59.734Z,99471.00
2022-10-03T02:28:37.043Z,99467.60
2022-10-03T02:34:36.691Z,99469.20
2022-10-03T02:39:50.641Z,99467.60
2022-10-03T02:45:13.290Z,99465.80
2022-10-03T02:50:37.385Z,99461.80
2022-10-03T02:55:55.765Z,99459.20
2022-10-03T03:01:30.131Z,99462.60
2022-10-03T03:07:21.774Z,99453.60
2022-10-03T03:13:26.269Z,99455.40
2022-10-03T03:18:38.371Z,99461.60
2022-10-03T03:24:31.304Z,99449.20
2022-10-03T03:29:52.745Z,99445.20
2022-10-03T03:35:25.645Z,99439.40
2022-10-03T03:41:31.770Z,99443.40
2022-10-03T03:47:08.901Z,99441.80
2022-10-03T03:52:51.376Z,99441.40
2022-10-03T03:58:33.438Z,99436.40
2022-10-03T04:04:01.487Z,99438.60
2022-10-03T04:09:38.426Z,99434.00
2022-10-03T04:15:27.566Z,99436.40
2022-10-03T04:20:58.755Z,99436.20
2022-10-03T04:26:59.843Z,99437.60
2022-10-03T04:32:23.953Z,99430.60
2022-10-03T04:37:44.765Z,99426.40
2022-10-03T04:43:35.722Z,99427.40
2022-10-03T04:49:02.260Z,99432.00
2022-10-03T04:54:40.022Z,99420.80
2022-10-03T04:59:54.138Z,99425.60
2022-10-03T05:05:44.757Z,99424.60
2022-10-03T05:11:15.737Z,99422.00
2022-10-03T05:16:47.425Z,99416.40
2022-10-03T05:22:04.299Z,99424.60
2022-10-03T05:27:19.722Z,99421.40
2022-10-03T05:32:47.357Z,99420.00
2022-10-03T05:38:02.508Z,99414.00
2022-10-03T05:43:42.263Z,99421.80
2022-10-03T05:49:16.896Z,99418.60
2022-10-03T05:54:43.891Z,99428.60
2022-10-03T06:00:23.526Z,99429.60
2022-10-03T06:06:12.157Z,99427.80
2022-10-03T06:12:02.338Z,99426.00
2022-10-03T06:17:27.546Z,99432.00
2022-10-03T06:23:28.086Z,99448.60
2022-10-03T06:29:10.739Z,99455.80
2022-10-03T06:34:54.647Z,99462.40
2022-10-03T06:40:41.301Z,99465.20
2022-10-03T06:46:45.967Z,99463.00
2022-10-03T06:52:29.821Z,99465.00
2022-10-03T06:57:54.337Z,99471.60
2022-10-03T07:03:15.456Z,99482.60
2022-10-03T07:09:00.137Z,99490.40
2022-10-03T07:14:14.951Z,99505.80
2022-10-03T07:20:04.291Z,99513.20
2022-10-03T07:25:26.790Z,99509.40
2022-10-03T07:30:58.589Z,99524.40
2022-10-03T07:37:23.691Z,99527.20
2022-10-03T07:43:22.869Z,99538.20
2022-10-03T07:49:17.647Z,99548.80
2022-10-03T07:54:56.770Z,99562.60
2022-10-03T08:00:22.787Z,99591.20
2022-10-03T08:06:00.200Z,99603.80
2022-10-03T08:11:15.102Z,99625.80
2022-10-03T08:16:50.768Z,99657.00
2022-10-03T08:21:56.744Z,99681.00
2022-10-03T08:27:48.446Z,99716.40
2022-10-03T08:33:22.318Z,99723.40
2022-10-03T08:38:34.229Z,99735.60
2022-10-03T08:44:14.002Z,99746.40
2022-10-03T08:50:05.055Z,99759.60
2022-10-03T08:55:37.325Z,99770.40
2022-10-03T09:01:19.280Z,99777.20
2022-10-03T09:06:25.030Z,99786.80
2022-10-03T09:12:04.254Z,99791.80
2022-10-03T09:17:44.361Z,99805.40
2022-10-03T09:23:16.281Z,99813.80
2022-10-03T09:29:00.373Z,99809.40
2022-10-03T09:35:04.818Z,99818.40
2022-10-03T09:40:34.578Z,99820.00
2022-10-03T09:46:17.738Z,99820.80
2022-10-03T09:51:44.668Z,99821.80
2022-10-03T09:57:06.917Z,99843.20
2022-10-03T10:02:37.825Z,99828.40
2022-10-03T10:08:51.382Z,99844.60
2022-10-03T10:14:12.568Z,99849.20
2022-10-03T10:19:44.161Z,99847.60
2022-10-03T10:25:33.084Z,99855.20
2022-10-03T10:31:10.561Z,99861.40
2022-10-03T10:36:53.327Z,99872.80
2022-10-03T10:42:30.529Z,99875.60
2022-10-03T10:48:21.532Z,99865.00
2022-10-03T10:54:14.511Z,99880.00
2022-10-03T11:00:01.724Z,99882.40
2022-10-03T11:05:30.109Z,99894.60
2022-10-03T11:10:37.312Z,99896.80
2022-10-03T11:16:55.384Z,99879.00
2022-10-03T11:22:18.768Z,99899.00
2022-10-03T11:27:46.034Z,99914.60
2022-10-03T11:33:23.066Z,99914.80
2022-10-03T11:38:39.254Z,99929.00
2022-10-03T11:44:07.357Z,99928.60
2022-10-03T11:49:46.183Z,99931.20
2022-10-03T11:54:59.992Z,99946.40
2022-10-03T12:00:20.152Z,99952.20
2022-10-03T12:06:47.321Z,99944.00
2022-10-03T12:12:28.322Z,99949.40
2022-10-03T12:17:40.749Z,99948.60
2022-10-03T12:23:19.188Z,99950.60
2022-10-03T12:28:53.311Z,99955.80
2022-10-03T12:34:38.219Z,99974.20
2022-10-03T12:40:04.683Z,99961.40
2022-10-03T12:45:54.819Z,99972.40
2022-10-03T12:51:31.763Z,99990.20
2022-10-03T12:56:53.106Z,99989.00
2022-10-03T13:02:47.111Z,100009.00
2022-10-03T13:08:07.300Z,100014.20
2022-10-03T13:13:25.355Z,100011.80
2022-10-03T13:18:43.235Z,100015.80
2022-10-03T13:24:01.384Z,100017.60
2022-10-03T13:29:39.172Z,100020.40
2022-10-03T13:35:35.134Z,100027.40
2022-10-03T13:40:56.566Z,100032.00
2022-10-03T13:46:02.593Z,100037.20
2022-10-03T13:51:22.396Z,100047.00
2022-10-03T13:56:50.366Z,100049.20
2022-10-03T14:02:00.185Z,100050.80
2022-10-03T14:07:37.300Z,100056.20
2022-10-03T14:13:17.266Z,100057.40
2022-10-03T14:18:33.477Z,100063.00
2022-10-03T14:23:50.765Z,100073.40
2022-10-03T14:29:15.425Z,100060.20
2022-10-03T14:35:02.575Z,100071.20
2022-10-03T14:40:33.725Z,100063.60
2022-10-03T14:45:48.778Z,100071.60
2022-10-03T14:51:01.319Z,100081.80
2022-10-03T14:56:09.937Z,100083.40
2022-10-03T15:01:20.863Z,100079.80
2022-10-03T15:06:48.550Z,100078.40
2022-10-03T15:12:17.581Z,100074.40
2022-10-03T15:17:27.158Z,100084.00
2022-10-03T15:22:36.569Z,100085.80
2022-10-03T15:27:48.867Z,100091.60
2022-10-03T15:32:56.893Z,100091.60
2022-10-03T15:38:14.586Z,100095.20
2022-10-03T15:43:41.548Z,100095.60
2022-10-03T15:48:47.597Z,100087.40
2022-10-03T15:53:58.579Z,100095.00
2022-10-03T15:59:08.842Z,100099.80
2022-10-03T16:04:25.624Z,100106.20
2022-10-03T16:09:59.120Z,100100.80
2022-10-03T16:15:15.059Z,100108.80
2022-10-03T16:20:41.789Z,100114.20
2022-10-03T16:25:55.554Z,100111.60
2022-10-03T16:31:11.494Z,100114.00
2022-10-03T16:36:21.286Z,100108.20
2022-10-03T16:41:31.895Z,100114.60
2022-10-03T16:46:40.286Z,100114.80
2022-10-03T16:51:55.567Z,100115.80
2022-10-03T16:57:03.409Z,100113.80
2022-10-03T17:02:15.136Z,100114.60
2022-10-03T17:07:27.382Z,100112.80
2022-10-03T17:12:34.701Z,100111.20
2022-10-03T17:18:00.140Z,100108.40
2022-10-03T17:23:15.693Z,100106.00
2022-10-03T17:28:38.560Z,100110.40
2022-10-03T17:33:48.566Z,100112.20
2022-10-03T17:39:02.622Z,100111.60
2022-10-03T17:44:34.577Z,100120.00
2022-10-03T17:49:57.991Z,100118.80
2022-10-03T17:55:05.286Z,100114.80
2022-10-03T18:00:22.316Z,100115.00
2022-10-03T18:05:49.669Z,100118.60
2022-10-03T18:10:56.413Z,100114.60
2022-10-03T18:16:25.100Z,100119.40
2022-10-03T18:21:38.420Z,100110.20
2022-10-03T18:27:06.098Z,100105.80
2022-10-03T18:32:25.585Z,100107.80
2022-10-03T18:37:28.601Z,100120.00
2022-10-03T18:42:32.685Z,100116.40
2022-10-03T18:47:46.480Z,100116.00
2022-10-03T18:53:01.664Z,100105.20
2022-10-03T18:58:26.948Z,100102.60
2022-10-03T19:03:54.369Z,100092.20
2022-10-03T19:09:09.768Z,100093.40
2022-10-03T19:14:26.277Z,100084.80
2022-10-03T19:19:56.571Z,100087.20
2022-10-03T19:25:06.835Z,100082.20
2022-10-03T19:30:19.540Z,100089.20
2022-10-03T19:35:25.513Z,100091.20
2022-10-03T19:41:00.687Z,100086.60
2022-10-03T19:46:15.784Z,100093.80
2022-10-03T19:51:25.793Z,100086.80
2022-10-03T19:56:35.543Z,100075.80
2022-10-03T20:01:47.901Z,100097.60
2022-10-03T20:06:52.749Z,100087.00
2022-10-03T20:12:07.426Z,100086.40
2022-10-03T20:17:30.128Z,100084.40
2022-10-03T20:22:36.689Z,100066.00
2022-10-03T20:27:48.727Z,100070.80
2022-10-03T20:32:56.136Z,100064.60
2022-10-03T20:38:23.369Z,100057.00
2022-10-03T20:43:41.592Z,100061.40
2022-10-03T20:49:21.810Z,100072.80
2022-10-03T20:54:59.761Z,100077.80
2022-10-03T21:00:18.615Z,100083.00
2022-10-03T21:05:33.416Z,100073.40
2022-10-03T21:10:43.997Z,100078.80
2022-10-03T21:15:53.949Z,100078.60
2022-10-03T21:21:05.892Z,100080.00
2022-10-03T21:26:11.511Z,100076.00
2022-10-03T21:31:56.983Z,100067.60
2022-10-03T21:37:10.371Z,100065.60
2022-10-03T21:42:43.886Z,100068.40
2022-10-03T21:47:56.731Z,100071.80
2022-10-03T21:53:24.065Z,100066.80
2022-10-03T21:58:50.025Z,100069.80
2022-10-03T22:04:39.014Z,100071.40
2022-10-03T22:09:56.101Z,100070.00
2022-10-03T22:15:10.718Z,100070.00
2022-10-03T22:20:22.094Z,100062.00
2022-10-03T22:25:40.382Z,100065.20
2022-10-03T22:31:15.745Z,100057.00
2022-10-03T22:36:19.975Z,100054.80
2022-10-03T22:41:29.774Z,100044.40
2022-10-03T22:46:36.505Z,100045.40
2022-10-03T22:51:41.589Z,100046.60
2022-10-03T22:56:54.319Z,100044.80
2022-10-03T23:02:05.007Z,100046.00
2022-10-03T23:07:23.770Z,100040.60
2022-10-03T23:12:37.218Z,100043.60
2022-10-03T23:18:23.229Z,100038.60
2022-10-03T23:23:49.583Z,100038.80
2022-10-03T23:29:14.027Z,100030.60
2022-10-03T23:34:37.993Z,100035.80
2022-10-03T23:39:43.587Z,100049.20
2022-10-03T23:44:53.484Z,100049.80
2022-10-03T23:49:57.469Z,100053.00
2022-10-03T23:55:07.075Z,100043.80
